Time;durP1;ratioP1;P1;durP2;ratioP2;P2;SDS_P1;SDS_P2;PMS_P1;PMS_P2;Temp;Humidity;BMP_temperature;BMP_pressure;BME280_temperature;BME280_humidity;BME280_pressure;Samples;Min_cycle;Max_cycle;Signal;HPM_P1;HPM_P2
2023/03/09 00:00:40;;;;;;;10.93;8.17;;;;;;;;;;5079195;28;20436;-56
2023/03/09 00:03:15;;;;;;;8.93;7.87;;;;;;;;;;5082151;28;20186;-56
2023/03/09 00:05:41;;;;;;;9.17;8.03;;;;;;;;;;5081880;28;20428;-56
2023/03/09 00:08:07;;;;;;;9.00;7.97;;;;;;;;;;5074156;28;20449;-56
2023/03/09 00:10:33;;;;;;;10.47;8.60;;;;;;;;;;5074222;28;20433;-56
2023/03/09 00:12:59;;;;;;;9.37;7.77;;;;;;;;;;5081328;28;20454;-56
2023/03/09 00:15:25;;;;;;;8.73;7.53;;;;;;;;;;5075978;28;20426;-57
2023/03/09 00:17:51;;;;;;;9.17;7.73;;;;;;;;;;5084721;28;20832;-58
2023/03/09 00:20:17;;;;;;;11.03;8.97;;;;;;;;;;5078718;28;20433;-56
2023/03/09 00:22:50;;;;;;;9.13;7.40;;;;;;;;;;5078886;28;20188;-56
2023/03/09 00:25:16;;;;;;;10.43;8.43;;;;;;;;;;5075705;28;20443;-56
2023/03/09 00:27:43;;;;;;;9.80;7.53;;;;;;;;;;5071547;28;20836;-56
2023/03/09 00:30:10;;;;;;;10.57;8.47;;;;;;;;;;5073298;28;20877;-56
2023/03/09 00:32:37;;;;;;;9.10;7.93;;;;;;;;;;5075763;28;20674;-57
2023/03/09 00:35:03;;;;;;;9.80;7.47;;;;;;;;;;5074962;28;20180;-56
2023/03/09 00:37:29;;;;;;;11.17;7.67;;;;;;;;;;5082675;28;20737;-56
2023/03/09 00:39:56;;;;;;;9.00;7.63;;;;;;;;;;5079184;28;20241;-56
2023/03/09 00:42:22;;;;;;;9.40;7.57;;;;;;;;;;5077140;28;20488;-56
2023/03/09 00:44:48;;;;;;;9.50;8.33;;;;;;;;;;5076757;28;20591;-57
2023/03/09 00:47:14;;;;;;;10.70;8.17;;;;;;;;;;5073417;28;20800;-57
2023/03/09 00:49:40;;;;;;;9.33;7.77;;;;;;;;;;5078949;28;20692;-56
2023/03/09 00:52:06;;;;;;;9.60;7.90;;;;;;;;;;5077444;28;20454;-56
2023/03/09 00:54:32;;;;;;;9.20;7.53;;;;;;;;;;5079623;28;20233;-57
2023/03/09 00:57:01;;;;;;;8.97;7.43;;;;;;;;;;5078899;28;20271;-56
2023/03/09 00:59:27;;;;;;;9.83;8.33;;;;;;;;;;5076169;28;20418;-56
2023/03/09 01:01:53;;;;;;;8.83;7.80;;;;;;;;;;5074027;28;20168;-56
2023/03/09 01:04:19;;;;;;;8.80;7.37;;;;;;;;;;5073448;28;20180;-56
2023/03/09 01:06:45;;;;;;;8.80;7.07;;;;;;;;;;5081123;28;20433;-56
2023/03/09 01:09:11;;;;;;;9.30;8.07;;;;;;;;;;5087887;28;20784;-57
2023/03/09 01:11:39;;;;;;;9.03;7.43;;;;;;;;;;5078098;28;20953;-56
2023/03/09 01:14:05;;;;;;;10.07;7.73;;;;;;;;;;5076280;28;20861;-56
2023/03/09 01:16:31;;;;;;;9.63;7.67;;;;;;;;;;5075764;28;20492;-56
2023/03/09 01:18:57;;;;;;;9.33;7.77;;;;;;;;;;5078737;28;20196;-57
2023/03/09 01:21:23;;;;;;;8.47;7.53;;;;;;;;;;5074920;28;20180;-56
2023/03/09 01:23:49;;;;;;;8.10;6.77;;;;;;;;;;5079239;28;20421;-56
2023/03/09 01:26:15;;;;;;;9.23;6.87;;;;;;;;;;5079167;28;20175;-56
2023/03/09 01:28:41;;;;;;;7.93;7.10;;;;;;;;;;5074768;28;20401;-57
2023/03/09 01:31:08;;;;;;;9.50;7.93;;;;;;;;;;5075361;28;20627;-57
2023/03/09 01:33:34;;;;;;;8.77;7.60;;;;;;;;;;5073994;28;20632;-56
2023/03/09 01:36:03;;;;;;;7.87;6.93;;;;;;;;;;5078794;28;20351;-57
2023/03/09 01:38:29;;;;;;;9.40;7.83;;;;;;;;;;5080006;28;20449;-57
2023/03/09 01:40:55;;;;;;;9.37;7.10;;;;;;;;;;5079950;28;20421;-57
2023/03/09 01:43:31;;;;;;;11.03;8.47;;;;;;;;;;5076525;28;20181;-57
2023/03/09 01:46:16;;;;;;;10.27;8.33;;;;;;;;;;5071983;28;20284;-57
2023/03/09 01:48:42;;;;;;;9.77;7.70;;;;;;;;;;5081350;28;20225;-57
2023/03/09 01:51:08;;;;;;;9.33;7.70;;;;;;;;;;5075704;28;20394;-56
2023/03/09 01:53:34;;;;;;;11.37;8.90;;;;;;;;;;5076959;28;20661;-57
2023/03/09 01:56:02;;;;;;;13.20;9.70;;;;;;;;;;5078975;28;20179;-57
2023/03/09 01:58:29;;;;;;;12.60;8.53;;;;;;;;;;5071127;28;20433;-57
2023/03/09 02:00:56;;;;;;;11.13;8.63;;;;;;;;;;5075043;28;20180;-57
2023/03/09 02:03:23;;;;;;;12.30;8.97;;;;;;;;;;5076488;28;20180;-57
2023/03/09 02:05:52;;;;;;;12.10;10.07;;;;;;;;;;5080083;28;20187;-57
2023/03/09 02:08:19;;;;;;;11.00;9.10;;;;;;;;;;5077668;28;20172;-57
2023/03/09 02:11:05;;;;;;;12.07;9.63;;;;;;;;;;5074000;28;21090;-57
2023/03/09 02:13:34;;;;;;;12.10;8.90;;;;;;;;;;5070733;28;20183;-57
2023/03/09 02:16:00;;;;;;;13.90;9.70;;;;;;;;;;5080341;28;20172;-56
2023/03/09 02:18:26;;;;;;;14.10;10.07;;;;;;;;;;5082690;28;20168;-57
2023/03/09 02:20:52;;;;;;;14.50;10.47;;;;;;;;;;5075025;28;20175;-56
2023/03/09 02:23:42;;;;;;;12.47;9.67;;;;;;;;;;5078222;28;20553;-57
2023/03/09 02:26:26;;;;;;;15.27;10.80;;;;;;;;;;5074353;28;20175;-57
2023/03/09 02:28:52;;;;;;;15.47;11.20;;;;;;;;;;5072133;28;20434;-56
2023/03/09 02:31:19;;;;;;;14.23;9.60;;;;;;;;;;5077181;28;20484;-57
2023/03/09 02:33:46;;;;;;;15.40;10.13;;;;;;;;;;5076649;28;20259;-56
2023/03/09 02:36:12;;;;;;;14.17;10.83;;;;;;;;;;5073679;28;20191;-56
2023/03/09 02:38:38;;;;;;;16.33;10.87;;;;;;;;;;5075156;28;20180;-57
2023/03/09 02:41:06;;;;;;;13.00;9.50;;;;;;;;;;5073527;28;20179;-56
2023/03/09 02:43:37;;;;;;;14.83;10.47;;;;;;;;;;5079474;28;20184;-57
2023/03/09 02:46:03;;;;;;;14.63;10.47;;;;;;;;;;5083111;28;20965;-56
2023/03/09 02:48:29;;;;;;;15.03;10.33;;;;;;;;;;5086192;28;20712;-58
2023/03/09 02:50:55;;;;;;;16.37;11.20;;;;;;;;;;5076430;28;20231;-57
2023/03/09 02:53:22;;;;;;;13.80;10.63;;;;;;;;;;5082223;28;20319;-57
2023/03/09 02:55:48;;;;;;;15.50;10.40;;;;;;;;;;5082274;28;20192;-56
2023/03/09 02:58:14;;;;;;;14.27;11.07;;;;;;;;;;5081195;28;20483;-57
2023/03/09 03:00:40;;;;;;;14.83;10.77;;;;;;;;;;5080283;28;20175;-57
2023/03/09 03:03:06;;;;;;;16.27;11.23;;;;;;;;;;5083592;28;20186;-56
2023/03/09 03:05:32;;;;;;;17.03;11.10;;;;;;;;;;5080639;28;20637;-57
2023/03/09 03:07:58;;;;;;;16.53;11.87;;;;;;;;;;5076727;28;20434;-56
2023/03/09 03:10:24;;;;;;;15.83;11.40;;;;;;;;;;5076395;28;20176;-57
2023/03/09 03:12:50;;;;;;;16.30;11.73;;;;;;;;;;5081701;28;20196;-57
2023/03/09 03:15:16;;;;;;;16.17;12.07;;;;;;;;;;5078069;28;20635;-57
2023/03/09 03:17:42;;;;;;;14.23;10.43;;;;;;;;;;5080494;28;20446;-56
2023/03/09 03:20:14;;;;;;;17.27;12.10;;;;;;;;;;5080794;28;20259;-57
2023/03/09 03:22:40;;;;;;;13.77;10.43;;;;;;;;;;5082533;28;20624;-57
2023/03/09 03:25:06;;;;;;;18.67;12.00;;;;;;;;;;5080304;28;20675;-57
2023/03/09 03:27:32;;;;;;;15.67;10.70;;;;;;;;;;5083828;28;20785;-57
2023/03/09 03:30:17;;;;;;;14.90;10.53;;;;;;;;;;4876366;28;20648;-55
2023/03/09 03:32:43;;;;;;;13.77;10.77;;;;;;;;;;5054296;28;20228;-56
2023/03/09 03:35:09;;;;;;;17.00;10.73;;;;;;;;;;5066970;28;20183;-57
2023/03/09 03:37:35;;;;;;;14.90;11.40;;;;;;;;;;5063299;28;20515;-57
2023/03/09 03:40:06;;;;;;;14.60;10.23;;;;;;;;;;5062630;28;20187;-57
2023/03/09 03:42:32;;;;;;;16.87;11.60;;;;;;;;;;5059093;28;20193;-56
2023/03/09 03:44:58;;;;;;;16.27;11.77;;;;;;;;;;5055997;28;20636;-56
2023/03/09 03:47:24;;;;;;;15.20;10.37;;;;;;;;;;5059881;28;20180;-57
2023/03/09 03:49:50;;;;;;;14.23;10.90;;;;;;;;;;5060640;28;20188;-56
2023/03/09 03:52:16;;;;;;;16.63;11.93;;;;;;;;;;5063595;28;20203;-57
2023/03/09 03:54:42;;;;;;;14.40;10.97;;;;;;;;;;5064861;28;20992;-57
2023/03/09 03:57:08;;;;;;;13.53;10.27;;;;;;;;;;5059862;28;20192;-56
2023/03/09 03:59:34;;;;;;;16.07;11.23;;;;;;;;;;5055308;28;20188;-57
2023/03/09 04:02:00;;;;;;;17.20;11.30;;;;;;;;;;5061243;28;20510;-56
2023/03/09 04:04:26;;;;;;;15.27;11.33;;;;;;;;;;5055186;28;20659;-57
2023/03/09 04:06:53;;;;;;;16.07;10.97;;;;;;;;;;5061804;28;20438;-57
2023/03/09 04:09:19;;;;;;;15.60;11.47;;;;;;;;;;5062262;28;20447;-56
2023/03/09 04:11:45;;;;;;;17.27;11.77;;;;;;;;;;5061268;28;20294;-57
2023/03/09 04:14:11;;;;;;;15.40;11.87;;;;;;;;;;5056383;28;20261;-57
2023/03/09 04:16:38;;;;;;;17.63;13.23;;;;;;;;;;5061843;28;20263;-56
2023/03/09 04:19:04;;;;;;;14.73;11.17;;;;;;;;;;5061685;28;20185;-56
2023/03/09 04:21:31;;;;;;;14.37;10.77;;;;;;;;;;5064540;28;20422;-57
2023/03/09 04:23:57;;;;;;;16.10;12.13;;;;;;;;;;5046323;28;20249;-56
2023/03/09 04:26:23;;;;;;;14.33;10.60;;;;;;;;;;5057227;28;20264;-56
2023/03/09 04:28:49;;;;;;;16.57;11.67;;;;;;;;;;5060542;28;20439;-57
2023/03/09 04:31:15;;;;;;;14.17;11.70;;;;;;;;;;5057055;28;20251;-57
2023/03/09 04:33:42;;;;;;;13.47;9.77;;;;;;;;;;5054251;28;20652;-57
2023/03/09 04:36:10;;;;;;;12.80;10.13;;;;;;;;;;5060059;28;20193;-57
2023/03/09 04:38:36;;;;;;;13.03;10.57;;;;;;;;;;5055907;28;20482;-57
2023/03/09 04:41:02;;;;;;;15.17;10.07;;;;;;;;;;5061809;28;20200;-57
2023/03/09 04:43:28;;;;;;;16.17;10.97;;;;;;;;;;5064762;28;20173;-57
2023/03/09 04:45:54;;;;;;;13.93;10.60;;;;;;;;;;5064589;28;20241;-57
2023/03/09 04:48:20;;;;;;;14.63;10.60;;;;;;;;;;5060185;28;20181;-57
2023/03/09 04:50:46;;;;;;;15.20;10.80;;;;;;;;;;5059003;28;20184;-56
2023/03/09 04:53:12;;;;;;;13.80;10.17;;;;;;;;;;5058464;28;20454;-58
2023/03/09 04:55:38;;;;;;;16.30;11.90;;;;;;;;;;5056509;28;20508;-57
2023/03/09 04:58:04;;;;;;;14.80;11.07;;;;;;;;;;5063281;28;20841;-57
2023/03/09 05:00:32;;;;;;;16.53;11.67;;;;;;;;;;5060644;28;20427;-56
2023/03/09 05:02:58;;;;;;;15.57;11.23;;;;;;;;;;5054370;28;20441;-57
2023/03/09 05:05:24;;;;;;;13.70;10.47;;;;;;;;;;5053706;28;20272;-57
2023/03/09 05:07:50;;;;;;;14.97;11.23;;;;;;;;;;5054603;28;20188;-57
2023/03/09 05:10:16;;;;;;;15.37;12.03;;;;;;;;;;5056258;28;20439;-57
2023/03/09 05:12:43;;;;;;;15.50;11.43;;;;;;;;;;5063609;28;20215;-57
2023/03/09 05:15:09;;;;;;;15.63;11.33;;;;;;;;;;5055066;28;20223;-57
2023/03/09 05:17:36;;;;;;;15.57;10.80;;;;;;;;;;5062341;28;20419;-57
2023/03/09 05:20:08;;;;;;;16.23;11.43;;;;;;;;;;5054063;28;20429;-57
2023/03/09 05:22:34;;;;;;;15.03;11.00;;;;;;;;;;5057289;28;20458;-56
2023/03/09 05:25:00;;;;;;;18.53;12.17;;;;;;;;;;5058264;28;20242;-56
2023/03/09 05:27:26;;;;;;;16.27;11.93;;;;;;;;;;5061158;28;20188;-57
2023/03/09 05:29:52;;;;;;;14.60;11.00;;;;;;;;;;5054255;28;20325;-57
2023/03/09 05:32:18;;;;;;;14.67;10.87;;;;;;;;;;5073260;28;20235;-57
2023/03/09 05:34:46;;;;;;;15.73;10.57;;;;;;;;;;5079142;28;20888;-57
2023/03/09 05:37:12;;;;;;;14.83;11.57;;;;;;;;;;5076598;28;20432;-57
2023/03/09 05:39:39;;;;;;;14.63;10.63;;;;;;;;;;5081550;28;20224;-58
2023/03/09 05:42:05;;;;;;;17.40;12.70;;;;;;;;;;5083163;28;20566;-56
2023/03/09 05:44:31;;;;;;;15.43;11.50;;;;;;;;;;5075801;28;20177;-58
2023/03/09 05:46:58;;;;;;;13.70;10.13;;;;;;;;;;5077543;28;20778;-57
2023/03/09 05:49:27;;;;;;;17.30;12.00;;;;;;;;;;5077553;28;20549;-57
2023/03/09 05:51:54;;;;;;;15.00;11.40;;;;;;;;;;5077801;28;20451;-57
2023/03/09 05:54:22;;;;;;;15.20;12.13;;;;;;;;;;5073736;28;20431;-56
2023/03/09 05:56:48;;;;;;;20.00;12.40;;;;;;;;;;5071176;28;20497;-57
2023/03/09 05:59:15;;;;;;;15.07;11.33;;;;;;;;;;5069038;28;20435;-57
2023/03/09 06:01:41;;;;;;;15.87;11.13;;;;;;;;;;5075633;28;20834;-56
2023/03/09 06:04:07;;;;;;;16.17;11.67;;;;;;;;;;5076878;28;20537;-57
2023/03/09 06:06:33;;;;;;;15.10;11.70;;;;;;;;;;5078401;28;20180;-57
2023/03/09 06:08:59;;;;;;;16.30;11.77;;;;;;;;;;5075998;28;20273;-57
2023/03/09 06:11:25;;;;;;;15.30;10.77;;;;;;;;;;5077464;28;21000;-56
2023/03/09 06:13:55;;;;;;;15.83;11.67;;;;;;;;;;5073992;28;20985;-57
2023/03/09 06:16:21;;;;;;;16.27;11.10;;;;;;;;;;5076370;28;20429;-57
2023/03/09 06:18:47;;;;;;;15.33;11.10;;;;;;;;;;5075375;28;20187;-56
2023/03/09 06:21:13;;;;;;;16.87;11.83;;;;;;;;;;5074259;28;20514;-57
2023/03/09 06:23:39;;;;;;;15.10;11.40;;;;;;;;;;5078929;28;20188;-56
2023/03/09 06:26:07;;;;;;;17.03;12.40;;;;;;;;;;5079368;28;20443;-56
2023/03/09 06:28:33;;;;;;;16.47;12.40;;;;;;;;;;5079242;28;20438;-56
2023/03/09 06:30:59;;;;;;;16.17;10.80;;;;;;;;;;5071060;28;20742;-57
2023/03/09 06:33:25;;;;;;;16.63;10.97;;;;;;;;;;5076969;28;20486;-57
2023/03/09 06:35:51;;;;;;;16.47;12.43;;;;;;;;;;5076765;28;20182;-57
2023/03/09 06:38:19;;;;;;;16.70;11.27;;;;;;;;;;5072378;28;20180;-58
2023/03/09 06:40:45;;;;;;;18.47;13.37;;;;;;;;;;5072775;28;20464;-57
2023/03/09 06:43:11;;;;;;;17.70;12.47;;;;;;;;;;5072013;28;20381;-58
2023/03/09 06:45:37;;;;;;;18.43;13.30;;;;;;;;;;5076573;28;20671;-57
2023/03/09 06:48:03;;;;;;;16.53;12.23;;;;;;;;;;5074584;28;20945;-58
2023/03/09 06:50:29;;;;;;;18.93;12.47;;;;;;;;;;5070102;28;20388;-58
2023/03/09 06:52:55;;;;;;;17.27;11.80;;;;;;;;;;5074987;28;20191;-57
2023/03/09 06:55:22;;;;;;;19.17;13.90;;;;;;;;;;5082525;28;20274;-58
2023/03/09 06:57:48;;;;;;;20.53;14.13;;;;;;;;;;5080587;28;20172;-57
2023/03/09 07:00:14;;;;;;;19.97;13.80;;;;;;;;;;5077289;28;20274;-57
2023/03/09 07:02:41;;;;;;;17.13;12.20;;;;;;;;;;5073258;28;20199;-57
2023/03/09 07:05:07;;;;;;;20.87;12.23;;;;;;;;;;5071030;28;20184;-57
2023/03/09 07:07:34;;;;;;;16.57;12.63;;;;;;;;;;5071777;28;20225;-57
2023/03/09 07:10:00;;;;;;;21.30;13.53;;;;;;;;;;5082463;28;20791;-58
2023/03/09 07:12:26;;;;;;;21.50;13.03;;;;;;;;;;5078080;28;20203;-57
2023/03/09 07:14:52;;;;;;;19.60;14.00;;;;;;;;;;5073978;28;20214;-57
2023/03/09 07:17:18;;;;;;;21.30;14.03;;;;;;;;;;5074677;28;20180;-58
2023/03/09 07:19:44;;;;;;;19.80;12.17;;;;;;;;;;5078223;28;20418;-57
2023/03/09 07:22:11;;;;;;;18.50;12.33;;;;;;;;;;5077916;28;20670;-58
2023/03/09 07:24:37;;;;;;;19.33;12.57;;;;;;;;;;5076911;28;20204;-58
2023/03/09 07:27:04;;;;;;;21.17;12.30;;;;;;;;;;5084272;28;20260;-58
2023/03/09 07:29:30;;;;;;;20.27;14.23;;;;;;;;;;5074116;28;20267;-58
2023/03/09 07:31:56;;;;;;;20.73;13.57;;;;;;;;;;5080183;28;20224;-58
2023/03/09 07:34:22;;;;;;;14.63;11.30;;;;;;;;;;5081069;28;20550;-57
2023/03/09 07:36:48;;;;;;;21.20;13.77;;;;;;;;;;5075662;28;20219;-57
2023/03/09 07:39:15;;;;;;;19.60;13.43;;;;;;;;;;5074878;28;20279;-54
2023/03/09 07:41:41;;;;;;;22.77;14.83;;;;;;;;;;5073189;28;20176;-54
2023/03/09 07:44:08;;;;;;;16.03;12.03;;;;;;;;;;5075848;28;20180;-56
2023/03/09 07:46:34;;;;;;;18.23;11.67;;;;;;;;;;5079239;28;20265;-54
2023/03/09 07:49:00;;;;;;;18.27;12.47;;;;;;;;;;5074917;28;20407;-54
2023/03/09 07:51:26;;;;;;;18.47;13.50;;;;;;;;;;5075824;28;20259;-54
2023/03/09 07:53:52;;;;;;;19.97;13.00;;;;;;;;;;5081322;28;20526;-54
2023/03/09 07:56:18;;;;;;;18.93;13.20;;;;;;;;;;5080850;28;20651;-54
2023/03/09 07:58:46;;;;;;;19.10;12.07;;;;;;;;;;5074224;28;20587;-53
2023/03/09 08:01:16;;;;;;;18.60;14.00;;;;;;;;;;5072898;28;20216;-54
2023/03/09 08:03:42;;;;;;;18.70;13.40;;;;;;;;;;5081519;28;20184;-54
2023/03/09 08:06:09;;;;;;;18.23;12.17;;;;;;;;;;5074609;28;20195;-54
2023/03/09 08:08:36;;;;;;;19.50;12.80;;;;;;;;;;5071799;28;20230;-54
2023/03/09 08:11:03;;;;;;;22.57;13.70;;;;;;;;;;5076481;28;20319;-54
2023/03/09 08:13:29;;;;;;;16.40;11.60;;;;;;;;;;5077040;28;20234;-54
2023/03/09 08:15:55;;;;;;;19.17;12.60;;;;;;;;;;5078056;28;20195;-55
2023/03/09 08:18:21;;;;;;;20.93;13.77;;;;;;;;;;5078841;28;20559;-54
2023/03/09 08:20:47;;;;;;;18.03;12.50;;;;;;;;;;5071045;28;20191;-54
2023/03/09 08:23:14;;;;;;;18.97;13.20;;;;;;;;;;5075726;28;20195;-54
2023/03/09 08:25:40;;;;;;;17.37;12.63;;;;;;;;;;5076626;28;20186;-54
2023/03/09 08:28:06;;;;;;;21.10;14.13;;;;;;;;;;5073411;28;20185;-54
2023/03/09 08:30:32;;;;;;;19.30;12.20;;;;;;;;;;5085645;28;20183;-54
2023/03/09 08:32:58;;;;;;;21.27;13.37;;;;;;;;;;5074019;28;20851;-54
2023/03/09 08:35:28;;;;;;;20.77;12.80;;;;;;;;;;5076308;28;20180;-54
2023/03/09 08:37:54;;;;;;;17.80;12.20;;;;;;;;;;5075532;28;20173;-54
2023/03/09 08:40:20;;;;;;;18.47;13.17;;;;;;;;;;5072045;28;20242;-54
2023/03/09 08:42:46;;;;;;;18.67;11.23;;;;;;;;;;5072615;28;20192;-54
2023/03/09 08:45:13;;;;;;;17.47;11.73;;;;;;;;;;5078093;28;20204;-54
2023/03/09 08:47:39;;;;;;;20.40;13.50;;;;;;;;;;5072772;28;20302;-54
2023/03/09 08:50:06;;;;;;;19.60;13.00;;;;;;;;;;5074898;28;20204;-54
2023/03/09 08:52:34;;;;;;;17.87;11.83;;;;;;;;;;5084611;28;20244;-54
2023/03/09 08:55:01;;;;;;;20.23;12.97;;;;;;;;;;5077579;28;20624;-54
2023/03/09 08:57:27;;;;;;;17.70;11.80;;;;;;;;;;5078261;28;20177;-54
2023/03/09 08:59:54;;;;;;;19.23;12.70;;;;;;;;;;5081078;28;20497;-54
2023/03/09 09:02:20;;;;;;;17.63;12.23;;;;;;;;;;5073917;28;20195;-54
2023/03/09 09:04:46;;;;;;;20.67;13.77;;;;;;;;;;5071395;28;20191;-54
2023/03/09 09:07:14;;;;;;;18.40;11.57;;;;;;;;;;5075146;28;20219;-54
2023/03/09 09:09:40;;;;;;;20.50;12.97;;;;;;;;;;5081802;28;20798;-54
2023/03/09 09:12:06;;;;;;;19.17;12.77;;;;;;;;;;5073703;28;20245;-54
2023/03/09 09:14:33;;;;;;;20.50;13.17;;;;;;;;;;5076110;28;20202;-54
2023/03/09 09:17:00;;;;;;;19.47;13.93;;;;;;;;;;5073789;28;20644;-54
2023/03/09 09:19:26;;;;;;;20.37;12.93;;;;;;;;;;5079610;28;20234;-54
2023/03/09 09:21:54;;;;;;;20.07;12.53;;;;;;;;;;5069803;28;20207;-54
2023/03/09 09:24:20;;;;;;;21.40;13.03;;;;;;;;;;5073907;28;20262;-54
2023/03/09 09:26:47;;;;;;;19.60;12.93;;;;;;;;;;5074716;28;20187;-54
2023/03/09 09:29:13;;;;;;;23.10;13.20;;;;;;;;;;5074667;28;20280;-54
2023/03/09 09:31:39;;;;;;;22.33;14.20;;;;;;;;;;5080071;28;20789;-54
2023/03/09 09:34:05;;;;;;;20.47;13.23;;;;;;;;;;5076668;28;20689;-54
2023/03/09 09:36:34;;;;;;;20.10;13.40;;;;;;;;;;5079067;28;20572;-54
2023/03/09 09:39:02;;;;;;;20.47;13.67;;;;;;;;;;5072317;28;20581;-54
2023/03/09 09:41:48;;;;;;;23.27;14.57;;;;;;;;;;5074260;28;20164;-54
2023/03/09 09:44:37;;;;;;;20.37;13.30;;;;;;;;;;5073114;28;20714;-54
2023/03/09 09:47:04;;;;;;;18.60;12.83;;;;;;;;;;5066536;28;20652;-54
2023/03/09 09:49:32;;;;;;;21.73;14.30;;;;;;;;;;5075893;28;20202;-54
2023/03/09 09:51:58;;;;;;;22.20;13.57;;;;;;;;;;5072995;28;20195;-54
2023/03/09 09:54:29;;;;;;;25.27;13.60;;;;;;;;;;5080258;28;20827;-54
2023/03/09 09:57:00;;;;;;;21.20;13.90;;;;;;;;;;5069783;28;20590;-54
2023/03/09 09:59:26;;;;;;;26.27;13.40;;;;;;;;;;5073128;28;20180;-55
2023/03/09 10:02:11;;;;;;;19.97;13.13;;;;;;;;;;5073723;28;20488;-54
2023/03/09 10:04:40;;;;;;;20.30;13.67;;;;;;;;;;5072686;28;20248;-58
2023/03/09 10:07:17;;;;;;;24.37;15.43;;;;;;;;;;5072533;28;20233;-58
2023/03/09 10:09:49;;;;;;;25.60;16.40;;;;;;;;;;5070666;28;20203;-57
2023/03/09 10:12:16;;;;;;;24.97;16.30;;;;;;;;;;5073288;28;20208;-56
2023/03/09 10:15:04;;;;;;;26.47;14.87;;;;;;;;;;5068957;28;20208;-57
2023/03/09 10:17:48;;;;;;;25.93;16.17;;;;;;;;;;5076322;28;20191;-56
2023/03/09 10:20:26;;;;;;;28.87;16.50;;;;;;;;;;5071429;28;20180;-56
2023/03/09 10:22:53;;;;;;;25.17;15.33;;;;;;;;;;5075956;28;20775;-56
2023/03/09 10:25:21;;;;;;;31.10;16.53;;;;;;;;;;5071057;28;20249;-57
2023/03/09 10:27:59;;;;;;;30.07;17.43;;;;;;;;;;5068212;28;20183;-56
2023/03/09 10:30:30;;;;;;;30.33;17.70;;;;;;;;;;5070055;28;20548;-56
2023/03/09 10:33:02;;;;;;;29.53;17.80;;;;;;;;;;5075031;28;20212;-57
2023/03/09 10:35:36;;;;;;;34.13;16.47;;;;;;;;;;5071329;28;20226;-57
2023/03/09 10:38:02;;;;;;;33.33;16.90;;;;;;;;;;5072441;28;20263;-57
2023/03/09 10:40:29;;;;;;;30.50;18.90;;;;;;;;;;5076918;28;20321;-57
2023/03/09 10:42:57;;;;;;;35.70;19.63;;;;;;;;;;5078277;28;20631;-57
2023/03/09 10:45:28;;;;;;;30.77;17.70;;;;;;;;;;5075611;28;20189;-57
2023/03/09 10:48:03;;;;;;;31.03;18.43;;;;;;;;;;5074186;28;20176;-57
2023/03/09 10:50:34;;;;;;;30.30;18.20;;;;;;;;;;5069628;28;20187;-57
2023/03/09 10:53:15;;;;;;;32.30;18.83;;;;;;;;;;5078637;28;20211;-57
2023/03/09 10:55:47;;;;;;;27.63;16.97;;;;;;;;;;5076168;28;20176;-57
2023/03/09 10:58:23;;;;;;;36.73;21.67;;;;;;;;;;5069253;28;20175;-57
2023/03/09 11:00:54;;;;;;;30.10;18.07;;;;;;;;;;5070964;28;20267;-57
2023/03/09 11:03:24;;;;;;;29.43;16.80;;;;;;;;;;5067626;28;20423;-58
2023/03/09 11:05:51;;;;;;;31.77;18.60;;;;;;;;;;5071935;28;20292;-58
2023/03/09 11:08:25;;;;;;;31.07;18.63;;;;;;;;;;5074006;28;20180;-58
2023/03/09 11:11:00;;;;;;;26.33;16.90;;;;;;;;;;5080414;28;20222;-58
2023/03/09 11:13:27;;;;;;;29.23;17.13;;;;;;;;;;5078709;28;20200;-58
2023/03/09 11:16:06;;;;;;;37.17;17.63;;;;;;;;;;5080250;28;20183;-59
2023/03/09 11:18:32;;;;;;;26.57;15.77;;;;;;;;;;5071713;28;20183;-59
2023/03/09 11:20:58;;;;;;;28.53;16.97;;;;;;;;;;5072830;28;20179;-59
2023/03/09 11:23:30;;;;;;;27.83;18.23;;;;;;;;;;5083178;28;20176;-59
2023/03/09 11:26:11;;;;;;;23.60;15.17;;;;;;;;;;5080440;28;21522;-59
2023/03/09 11:28:56;;;;;;;25.93;16.67;;;;;;;;;;5080679;28;20187;-59
2023/03/09 11:31:26;;;;;;;25.03;15.00;;;;;;;;;;5074355;28;20227;-59
2023/03/09 11:33:55;;;;;;;29.27;17.37;;;;;;;;;;5076204;28;20179;-58
2023/03/09 11:36:24;;;;;;;29.20;17.93;;;;;;;;;;5073716;28;20269;-57
2023/03/09 11:38:51;;;;;;;32.30;18.07;;;;;;;;;;5081027;28;20211;-57
2023/03/09 11:41:17;;;;;;;26.57;16.30;;;;;;;;;;5072915;28;20176;-58
2023/03/09 11:43:44;;;;;;;29.13;16.83;;;;;;;;;;5080853;28;20490;-58
2023/03/09 11:46:13;;;;;;;27.07;16.83;;;;;;;;;;5080450;28;20282;-58
2023/03/09 11:48:42;;;;;;;26.23;17.60;;;;;;;;;;5077161;28;20169;-58
2023/03/09 11:51:16;;;;;;;31.67;17.07;;;;;;;;;;5077783;28;20179;-58
2023/03/09 11:53:52;;;;;;;30.10;17.60;;;;;;;;;;5075422;28;20273;-58
2023/03/09 11:56:26;;;;;;;27.63;16.20;;;;;;;;;;5077517;28;20269;-58
2023/03/09 11:58:54;;;;;;;28.40;17.30;;;;;;;;;;5079287;28;20718;-58
2023/03/09 12:01:23;;;;;;;28.70;18.13;;;;;;;;;;5076591;28;20595;-56
2023/03/09 12:04:04;;;;;;;29.27;18.60;;;;;;;;;;5074552;28;20228;-57
2023/03/09 12:06:33;;;;;;;24.57;16.80;;;;;;;;;;5076048;28;20248;-57
2023/03/09 12:09:01;;;;;;;30.63;17.63;;;;;;;;;;5077867;28;20180;-58
2023/03/09 12:11:30;;;;;;;26.33;16.20;;;;;;;;;;5079606;28;20211;-57
2023/03/09 12:14:12;;;;;;;27.77;17.83;;;;;;;;;;5080031;28;20260;-57
2023/03/09 12:16:40;;;;;;;23.47;16.33;;;;;;;;;;5073616;28;20184;-57
2023/03/09 12:19:13;;;;;;;29.33;17.97;;;;;;;;;;5078030;28;20370;-58
2023/03/09 12:21:43;;;;;;;28.47;16.73;;;;;;;;;;5077832;28;20323;-57
2023/03/09 12:24:31;;;;;;;23.93;15.37;;;;;;;;;;5082973;28;20176;-56
2023/03/09 12:27:16;;;;;;;25.97;16.37;;;;;;;;;;5079524;28;20186;-56
2023/03/09 12:29:48;;;;;;;24.17;15.00;;;;;;;;;;5079134;28;20268;-56
2023/03/09 12:32:17;;;;;;;27.73;15.73;;;;;;;;;;5077246;28;20314;-57
2023/03/09 12:34:44;;;;;;;28.30;15.90;;;;;;;;;;5078491;28;20779;-57
2023/03/09 12:37:28;;;;;;;30.37;17.40;;;;;;;;;;5079311;28;20312;-57
2023/03/09 12:40:05;;;;;;;26.50;17.67;;;;;;;;;;5077541;28;20593;-57
2023/03/09 12:42:39;;;;;;;25.53;16.60;;;;;;;;;;5056902;28;20184;-57
2023/03/09 12:45:11;;;;;;;30.10;17.33;;;;;;;;;;5078408;28;20639;-57
2023/03/09 12:47:37;;;;;;;29.80;17.20;;;;;;;;;;5078708;28;20514;-57
2023/03/09 12:50:36;;;;;;;30.20;17.33;;;;;;;;;;5076845;28;20184;-57
2023/03/09 12:53:12;;;;;;;25.53;16.80;;;;;;;;;;5028513;28;20277;-58
2023/03/09 12:55:38;;;;;;;28.93;17.10;;;;;;;;;;5072415;28;20187;-57
2023/03/09 12:58:22;;;;;;;29.33;17.00;;;;;;;;;;5071205;28;20540;-57
2023/03/09 13:00:48;;;;;;;31.23;16.73;;;;;;;;;;5076375;28;20310;-58
2023/03/09 13:03:16;;;;;;;28.73;16.90;;;;;;;;;;5075547;28;20267;-57
2023/03/09 13:05:55;;;;;;;27.13;15.87;;;;;;;;;;5077046;28;20192;-58
2023/03/09 13:08:25;;;;;;;26.23;15.03;;;;;;;;;;5080465;28;20218;-57
2023/03/09 13:10:51;;;;;;;25.50;15.80;;;;;;;;;;5078395;28;20207;-57
2023/03/09 13:13:32;;;;;;;26.73;15.67;;;;;;;;;;5078935;28;20691;-57
2023/03/09 13:16:17;;;;;;;26.50;15.83;;;;;;;;;;5072424;28;20182;-56
2023/03/09 13:18:43;;;;;;;27.20;16.17;;;;;;;;;;5078051;28;20179;-55
2023/03/09 13:21:28;;;;;;;27.73;16.43;;;;;;;;;;5077113;28;20181;-55
2023/03/09 13:23:54;;;;;;;28.27;15.60;;;;;;;;;;5076384;28;20188;-55
2023/03/09 13:26:20;;;;;;;26.07;15.97;;;;;;;;;;5076282;28;20192;-55
2023/03/09 13:28:47;;;;;;;24.13;14.90;;;;;;;;;;5072035;28;20184;-55
2023/03/09 13:31:27;;;;;;;25.73;16.37;;;;;;;;;;5077933;28;20258;-55
2023/03/09 13:33:54;;;;;;;23.53;14.03;;;;;;;;;;5073619;28;20419;-55
2023/03/09 13:36:24;;;;;;;24.50;15.73;;;;;;;;;;5076094;28;20750;-55
2023/03/09 13:38:54;;;;;;;22.07;14.23;;;;;;;;;;5072108;28;20222;-55
2023/03/09 13:41:24;;;;;;;27.10;15.53;;;;;;;;;;5083612;28;20179;-55
2023/03/09 13:43:51;;;;;;;22.03;14.17;;;;;;;;;;5076038;28;20172;-56
2023/03/09 13:46:22;;;;;;;21.53;15.03;;;;;;;;;;5077210;28;20199;-55
2023/03/09 13:48:50;;;;;;;24.80;14.83;;;;;;;;;;5075743;28;20237;-56
2023/03/09 13:51:24;;;;;;;23.67;14.47;;;;;;;;;;5074058;28;20628;-55
2023/03/09 13:53:50;;;;;;;22.43;13.37;;;;;;;;;;5078195;28;20518;-55
2023/03/09 13:56:16;;;;;;;22.10;14.00;;;;;;;;;;5078238;28;20214;-56
2023/03/09 13:58:44;;;;;;;22.53;14.17;;;;;;;;;;5074839;28;20179;-55
2023/03/09 14:01:21;;;;;;;22.93;14.20;;;;;;;;;;5075861;28;20295;-55
2023/03/09 14:03:48;;;;;;;23.53;15.37;;;;;;;;;;5073408;28;20266;-55
2023/03/09 14:06:14;;;;;;;19.63;12.53;;;;;;;;;;5079462;28;20298;-55
2023/03/09 14:08:43;;;;;;;20.90;13.03;;;;;;;;;;5079637;28;20270;-55
2023/03/09 14:11:14;;;;;;;23.73;15.33;;;;;;;;;;5077702;28;20639;-55
2023/03/09 14:13:48;;;;;;;20.83;14.17;;;;;;;;;;5072037;28;20204;-55
2023/03/09 14:16:16;;;;;;;20.37;12.87;;;;;;;;;;5075916;28;20261;-55
2023/03/09 14:18:50;;;;;;;21.83;14.33;;;;;;;;;;5080740;28;20175;-55
2023/03/09 14:21:23;;;;;;;19.00;12.47;;;;;;;;;;5078013;28;20594;-55
2023/03/09 14:23:49;;;;;;;18.83;12.63;;;;;;;;;;5080826;28;20722;-56
2023/03/09 14:26:29;;;;;;;21.87;13.03;;;;;;;;;;5074516;28;20546;-54
2023/03/09 14:29:00;;;;;;;17.70;11.50;;;;;;;;;;5076585;28;20256;-55